createdAt,value
2023-04-25T00:00:24.739Z,100185.44
2023-04-25T00:02:52.554Z,100189.75
2023-04-25T00:05:20.787Z,100188.66
2023-04-25T00:07:48.560Z,100188.66
2023-04-25T00:10:16.443Z,100188.34
2023-04-25T00:12:46.478Z,100191.00
2023-04-25T00:15:14.349Z,100188.66
2023-04-25T00:17:42.295Z,100187.47
2023-04-25T00:20:11.254Z,100183.88
2023-04-25T00:22:39.241Z,100187.19
2023-04-25T00:25:07.692Z,100185.66
2023-04-25T00:27:35.513Z,100184.13
2023-04-25T00:30:05.214Z,100187.72
2023-04-25T00:32:32.995Z,100184.13
2023-04-25T00:35:00.877Z,100189.94
2023-04-25T00:37:28.824Z,100192.25
2023-04-25T00:39:57.003Z,100188.34
2023-04-25T00:42:24.754Z,100189.13
2023-04-25T00:44:54.401Z,100191.50
2023-04-25T00:47:24.787Z,100184.84
2023-04-25T00:49:54.295Z,100193.94
2023-04-25T00:52:22.779Z,100185.09
2023-04-25T00:54:50.732Z,100186.75
2023-04-25T00:57:18.551Z,100184.13
2023-04-25T00:59:48.056Z,100186.25
2023-04-25T01:02:15.957Z,100188.63
2023-04-25T01:04:45.145Z,100176.84
2023-04-25T01:07:12.950Z,100190.13
2023-04-25T01:09:41.016Z,100196.69
2023-04-25T01:12:09.656Z,100193.47
2023-04-25T01:14:37.945Z,100195.97
2023-04-25T01:17:08.635Z,100199.78
2023-04-25T01:19:36.984Z,100187.00
2023-04-25T01:22:06.468Z,100193.44
2023-04-25T01:24:35.117Z,100197.31
2023-04-25T01:27:03.691Z,100181.47
2023-04-25T01:29:32.324Z,100193.91
2023-04-25T01:32:00.475Z,100195.59
2023-04-25T01:34:28.240Z,100198.84
2023-04-25T01:37:01.525Z,100196.91
2023-04-25T01:39:31.556Z,100190.78
2023-04-25T01:42:01.153Z,100194.63
2023-04-25T01:44:29.120Z,100197.13
2023-04-25T01:46:57.065Z,100201.69
2023-04-25T01:49:24.865Z,100204.47
2023-04-25T01:51:52.687Z,100207.69
2023-04-25T01:54:21.248Z,100207.69
2023-04-25T01:56:53.655Z,100205.03
2023-04-25T01:59:23.324Z,100204.91
2023-04-25T02:02:23.612Z,100208.50
2023-04-25T02:04:52.241Z,100213.22
2023-04-25T02:07:20.506Z,100215.59
2023-04-25T02:09:54.996Z,100213.34
2023-04-25T02:12:27.391Z,100215.66
2023-04-25T02:15:18.101Z,100214.00
2023-04-25T02:17:53.682Z,100217.31
2023-04-25T02:20:23.177Z,100214.31
2023-04-25T02:22:51.139Z,100216.56
2023-04-25T02:25:20.660Z,100214.88
2023-04-25T02:27:52.334Z,100213.06
2023-04-25T02:30:20.385Z,100209.22
2023-04-25T02:32:48.466Z,100210.06
2023-04-25T02:35:16.275Z,100208.94
2023-04-25T02:37:44.566Z,100211.69
2023-04-25T02:40:14.301Z,100206.00
2023-04-25T02:42:42.187Z,100216.72
2023-04-25T02:45:12.106Z,100211.56
2023-04-25T02:47:40.042Z,100214.88
2023-04-25T02:50:08.871Z,100223.75
2023-04-25T02:52:37.474Z,100210.19
2023-04-25T02:55:16.490Z,100210.31
2023-04-25T02:57:45.041Z,100219.06
2023-04-25T03:00:18.101Z,100221.69
2023-04-25T03:02:45.878Z,100214.63
2023-04-25T03:05:13.823Z,100217.81
2023-04-25T03:07:41.845Z,100215.59
2023-04-25T03:10:11.864Z,100213.50
2023-04-25T03:12:40.048Z,100215.03
2023-04-25T03:15:08.519Z,100206.88
2023-04-25T03:17:38.803Z,100209.38
2023-04-25T03:20:09.399Z,100204.94
2023-04-25T03:22:38.241Z,100199.94
2023-04-25T03:25:07.160Z,100207.72
2023-04-25T03:27:34.880Z,100207.41
2023-04-25T03:30:04.095Z,100213.22
2023-04-25T03:32:32.038Z,100211.53
2023-04-25T03:35:01.247Z,100216.81
2023-04-25T03:37:29.789Z,100212.94
2023-04-25T03:39:57.570Z,100216.94
2023-04-25T03:42:30.988Z,100220.97
2023-04-25T03:44:58.927Z,100222.91
2023-04-25T03:47:26.811Z,100223.75
2023-04-25T03:49:54.725Z,100219.88
2023-04-25T03:52:26.574Z,100218.34
2023-04-25T03:54:55.309Z,100217.25
2023-04-25T03:57:25.693Z,100216.56
2023-04-25T03:59:54.567Z,100218.75
2023-04-25T04:02:22.669Z,100225.88
2023-04-25T04:04:53.228Z,100221.94
2023-04-25T04:07:22.036Z,100227.31
2023-04-25T04:09:55.017Z,100239.09
2023-04-25T04:12:30.509Z,100235.41
2023-04-25T04:14:58.240Z,100242.47
2023-04-25T04:17:26.099Z,100237.22
2023-04-25T04:19:53.948Z,100236.13
2023-04-25T04:22:22.275Z,100240.16
2023-04-25T04:24:50.924Z,100243.78
2023-04-25T04:27:26.052Z,100238.03
2023-04-25T04:30:18.093Z,100238.84
2023-04-25T04:33:00.057Z,100240.56
2023-04-25T04:35:28.255Z,100246.16
2023-04-25T04:37:57.075Z,100246.41
2023-04-25T04:40:27.591Z,100249.75
2023-04-25T04:43:35.000Z,100262.56
2023-04-25T04:46:16.013Z,100262.47
2023-04-25T04:49:03.955Z,100261.25
2023-04-25T04:51:56.844Z,100263.44
2023-04-25T04:54:54.549Z,100279.34
2023-04-25T04:57:48.271Z,100280.19
2023-04-25T05:00:39.472Z,100281.84
2023-04-25T05:03:26.189Z,100287.47
2023-04-25T05:06:09.781Z,100294.34
2023-04-25T05:08:54.726Z,100290.00
2023-04-25T05:11:47.217Z,100296.47
2023-04-25T05:14:25.926Z,100296.47
2023-04-25T05:17:26.972Z,100299.38
2023-04-25T05:20:15.413Z,100307.09
2023-04-25T05:23:02.158Z,100306.84
2023-04-25T05:25:55.117Z,100311.41
2023-04-25T05:28:33.272Z,100298.88
2023-04-25T05:31:18.251Z,100323.38
2023-04-25T05:33:53.501Z,100327.66
2023-04-25T05:36:22.247Z,100323.38
2023-04-25T05:38:50.224Z,100327.53
2023-04-25T05:41:36.569Z,100329.91
2023-04-25T05:44:24.585Z,100330.03
2023-04-25T05:47:10.948Z,100328.34
2023-04-25T05:50:18.587Z,100340.56
2023-04-25T05:53:06.825Z,100338.66
2023-04-25T05:55:40.858Z,100340.81
2023-04-25T05:58:23.665Z,100335.06
2023-04-25T06:00:51.743Z,100338.31
2023-04-25T06:03:20.817Z,100338.19
2023-04-25T06:05:51.341Z,100350.03
2023-04-25T06:08:19.958Z,100363.78
2023-04-25T06:10:47.714Z,100361.06
2023-04-25T06:13:16.308Z,100370.66
2023-04-25T06:15:44.983Z,100361.81
2023-04-25T06:18:13.397Z,100363.50
2023-04-25T06:20:41.353Z,100364.38
2023-04-25T06:23:10.451Z,100363.13
2023-04-25T06:25:49.753Z,100360.47
2023-04-25T06:28:17.573Z,100358.22
2023-04-25T06:30:46.122Z,100362.44
2023-04-25T06:33:18.341Z,100362.91
2023-04-25T06:35:46.907Z,100367.59
2023-04-25T06:38:18.836Z,100370.56
2023-04-25T06:40:50.129Z,100366.66
2023-04-25T06:43:38.014Z,100352.09
2023-04-25T06:46:26.639Z,100371.16
2023-04-25T06:48:55.139Z,100372.97
2023-04-25T06:51:24.279Z,100375.91
2023-04-25T06:53:56.206Z,100373.13
2023-04-25T06:56:36.604Z,100392.63
2023-04-25T06:59:10.046Z,100387.06
2023-04-25T07:01:39.772Z,100392.91
2023-04-25T07:04:12.926Z,100385.84
2023-04-25T07:06:48.469Z,100397.09
2023-04-25T07:09:20.388Z,100401.03
2023-04-25T07:11:52.476Z,100397.69
2023-04-25T07:14:20.284Z,100401.31
2023-04-25T07:16:48.168Z,100402.13
2023-04-25T07:19:15.971Z,100414.59
2023-04-25T07:21:43.812Z,100415.56
2023-04-25T07:24:12.713Z,100411.59
2023-04-25T07:26:46.559Z,100417.97
2023-04-25T07:29:23.966Z,100421.66
2023-04-25T07:31:52.385Z,100418.31
2023-04-25T07:34:21.655Z,100419.13
2023-04-25T07:36:50.436Z,100418.88
2023-04-25T07:39:18.461Z,100417.34
2023-04-25T07:41:47.642Z,100423.31
2023-04-25T07:44:21.273Z,100425.00
2023-04-25T07:46:49.335Z,100431.56
2023-04-25T07:49:17.792Z,100438.09
2023-04-25T07:51:46.678Z,100426.28
2023-04-25T07:54:17.597Z,100434.88
2023-04-25T07:56:53.613Z,100434.38
2023-04-25T07:59:27.997Z,100438.41
2023-04-25T08:01:58.296Z,100443.13
2023-04-25T08:04:27.348Z,100449.81
2023-04-25T08:07:00.039Z,100445.81
2023-04-25T08:09:35.509Z,100453.16
2023-04-25T08:12:07.538Z,100457.47
2023-04-25T08:14:38.291Z,100466.63
2023-04-25T08:17:07.273Z,100471.47
2023-04-25T08:19:40.856Z,100467.84
2023-04-25T08:22:13.720Z,100474.09
2023-04-25T08:24:52.733Z,100472.53
2023-04-25T08:27:22.967Z,100479.50
2023-04-25T08:29:51.103Z,100488.91
2023-04-25T08:32:20.423Z,100494.59
2023-04-25T08:35:06.557Z,100499.09
2023-04-25T08:37:34.434Z,100493.31
2023-04-25T08:40:15.902Z,100503.03
2023-04-25T08:42:51.387Z,100497.91
2023-04-25T08:45:20.288Z,100510.44
2023-04-25T08:47:49.774Z,100517.22
2023-04-25T08:50:20.297Z,100518.66
2023-04-25T08:52:50.550Z,100521.53
2023-04-25T08:55:18.785Z,100522.38
2023-04-25T08:57:48.449Z,100529.22
2023-04-25T09:00:19.050Z,100527.59
2023-04-25T09:02:49.278Z,100534.59
2023-04-25T09:05:17.447Z,100529.06
2023-04-25T09:07:46.423Z,100548.00
2023-04-25T09:10:15.683Z,100535.22
2023-04-25T09:12:43.581Z,100543.72
2023-04-25T09:15:20.597Z,100546.72
2023-04-25T09:18:13.344Z,100558.47
2023-04-25T09:21:00.658Z,100545.06
2023-04-25T09:23:30.517Z,100559.69
2023-04-25T09:25:59.023Z,100558.34
2023-04-25T09:28:30.116Z,100565.53
2023-04-25T09:31:01.181Z,100567.22
2023-04-25T09:33:42.760Z,100564.44
2023-04-25T09:36:13.084Z,100561.81
2023-04-25T09:39:02.127Z,100571.19
2023-04-25T09:41:33.566Z,100563.31
2023-04-25T09:44:03.959Z,100565.09
2023-04-25T09:46:38.412Z,100574.06
2023-04-25T09:49:29.216Z,100574.75
2023-04-25T09:52:06.660Z,100578.78
2023-04-25T09:54:43.632Z,100578.03
2023-04-25T09:57:18.348Z,100569.34
2023-04-25T09:59:48.119Z,100584.31
2023-04-25T10:02:20.564Z,100582.66
2023-04-25T10:04:53.761Z,100596.81
2023-04-25T10:07:39.191Z,100595.78
2023-04-25T10:10:14.646Z,100602.06
2023-04-25T10:12:44.490Z,100592.44
2023-04-25T10:15:14.403Z,100605.31
2023-04-25T10:17:44.084Z,100604.31
2023-04-25T10:20:12.442Z,100602.75
2023-04-25T10:22:43.272Z,100607.97
2023-04-25T10:25:12.138Z,100613.25
2023-04-25T10:27:41.120Z,100604.75
2023-04-25T10:30:12.130Z,100595.28
2023-04-25T10:32:40.261Z,100616.47
2023-04-25T10:35:17.956Z,100621.31
2023-04-25T10:38:05.962Z,100621.09
2023-04-25T10:40:34.296Z,100635.00
2023-04-25T10:43:36.866Z,100628.97
2023-04-25T10:46:06.673Z,100629.22
2023-04-25T10:48:36.397Z,100631.88
2023-04-25T10:51:11.419Z,100629.44
2023-04-25T10:53:39.636Z,100638.63
2023-04-25T10:56:14.377Z,100628.66
2023-04-25T10:58:46.486Z,100634.66
2023-04-25T11:01:15.479Z,100628.94
2023-04-25T11:03:44.858Z,100623.97
2023-04-25T11:06:24.522Z,100627.75
2023-04-25T11:08:53.566Z,100618.69
2023-04-25T11:11:22.040Z,100614.78
2023-04-25T11:13:50.711Z,100618.13
2023-04-25T11:16:27.420Z,100619.97
2023-04-25T11:18:58.902Z,100623.88
2023-04-25T11:21:28.720Z,100632.56
2023-04-25T11:23:58.265Z,100637.00
2023-04-25T11:26:27.040Z,100635.09
2023-04-25T11:28:59.498Z,100612.53
2023-04-25T11:31:27.667Z,100625.59
2023-04-25T11:33:55.977Z,100636.19
2023-04-25T11:36:24.793Z,100635.41
2023-04-25T11:38:54.684Z,100646.84
2023-04-25T11:41:23.355Z,100640.38
2023-04-25T11:43:53.217Z,100636.16
2023-04-25T11:46:22.026Z,100632.75
2023-04-25T11:48:51.741Z,100629.28
2023-04-25T11:51:19.929Z,100636.47
2023-04-25T11:53:47.687Z,100639.38
2023-04-25T11:56:17.134Z,100644.38
2023-04-25T11:58:58.832Z,100639.53
2023-04-25T12:01:34.114Z,100650.84
2023-04-25T12:04:13.540Z,100649.53
2023-04-25T12:06:42.485Z,100644.22
2023-04-25T12:09:12.215Z,100646.22
2023-04-25T12:11:45.376Z,100645.53
2023-04-25T12:14:13.767Z,100652.34
2023-04-25T12:16:46.067Z,100648.03
2023-04-25T12:19:16.860Z,100657.28
2023-04-25T12:21:57.145Z,100663.16
2023-04-25T12:24:29.046Z,100657.53
2023-04-25T12:27:05.061Z,100657.91
2023-04-25T12:29:42.572Z,100661.31
2023-04-25T12:32:19.646Z,100667.50
2023-04-25T12:34:47.518Z,100665.19
2023-04-25T12:37:15.964Z,100655.06
2023-04-25T12:39:43.932Z,100674.75
2023-04-25T12:42:13.743Z,100672.78
2023-04-25T12:44:44.744Z,100679.34
2023-04-25T12:47:12.614Z,100675.25
2023-04-25T12:49:40.366Z,100681.69
2023-04-25T12:52:08.166Z,100675.81
2023-04-25T12:54:36.360Z,100668.72
2023-04-25T12:57:04.489Z,100685.31
2023-04-25T12:59:33.922Z,100687.91
2023-04-25T13:02:01.940Z,100687.81
2023-04-25T13:04:31.759Z,100683.06
2023-04-25T13:06:59.836Z,100688.50
2023-04-25T13:09:27.602Z,100692.88
2023-04-25T13:11:57.221Z,100696.84
2023-04-25T13:14:26.162Z,100692.94
2023-04-25T13:16:55.881Z,100695.31
2023-04-25T13:19:23.936Z,100702.22
2023-04-25T13:21:52.135Z,100699.66
2023-04-25T13:24:19.992Z,100693.06
2023-04-25T13:26:47.721Z,100688.88
2023-04-25T13:29:15.527Z,100699.50
2023-04-25T13:31:43.553Z,100704.34
2023-04-25T13:34:13.622Z,100712.81
2023-04-25T13:36:41.565Z,100706.34
2023-04-25T13:39:09.397Z,100710.13
2023-04-25T13:41:40.257Z,100708.69
2023-04-25T13:44:08.058Z,100710.72
2023-04-25T13:46:46.510Z,100714.69
2023-04-25T13:49:16.889Z,100715.50
2023-04-25T13:51:44.831Z,100722.63
2023-04-25T13:54:12.595Z,100714.75
2023-04-25T13:56:43.067Z,100722.00
2023-04-25T13:59:11.020Z,100710.88
2023-04-25T14:01:39.078Z,100714.88
2023-04-25T14:04:07.004Z,100714.66
2023-04-25T14:06:36.769Z,100715.78
2023-04-25T14:09:05.596Z,100707.38
2023-04-25T14:11:33.591Z,100705.81
2023-04-25T14:14:01.347Z,100712.63
2023-04-25T14:16:29.768Z,100703.69
2023-04-25T14:18:58.806Z,100709.19
2023-04-25T14:21:27.910Z,100703.03
2023-04-25T14:23:57.130Z,100702.06
2023-04-25T14:26:24.889Z,100702.94
2023-04-25T14:28:53.627Z,100710.09
2023-04-25T14:31:21.967Z,100726.88
2023-04-25T14:33:49.981Z,100723.47
2023-04-25T14:36:17.954Z,100725.22
2023-04-25T14:38:45.816Z,100726.47
2023-04-25T14:41:15.019Z,100729.59
2023-04-25T14:43:42.793Z,100723.94
2023-04-25T14:46:11.960Z,100712.25
2023-04-25T14:48:40.578Z,100729.47
2023-04-25T14:51:08.401Z,100725.41
2023-04-25T14:53:39.388Z,100730.44
2023-04-25T14:56:08.294Z,100724.91
2023-04-25T14:58:39.903Z,100721.53
2023-04-25T15:01:08.049Z,100722.16
2023-04-25T15:03:42.573Z,100722.38
2023-04-25T15:06:10.924Z,100708.34
2023-04-25T15:08:38.836Z,100711.06
2023-04-25T15:11:09.313Z,100728.22
2023-04-25T15:13:39.260Z,100728.22
2023-04-25T15:16:07.705Z,100730.19
2023-04-25T15:18:35.529Z,100733.97
2023-04-25T15:21:03.448Z,100726.28
2023-04-25T15:23:31.329Z,100726.72
2023-04-25T15:26:02.084Z,100731.03
2023-04-25T15:28:30.081Z,100727.94
2023-04-25T15:30:59.479Z,100730.84
2023-04-25T15:33:27.724Z,100738.50
2023-04-25T15:35:55.478Z,100741.66
2023-04-25T15:38:23.209Z,100734.78
2023-04-25T15:40:50.986Z,100732.03
2023-04-25T15:43:18.714Z,100734.69
2023-04-25T15:45:46.584Z,100725.97
2023-04-25T15:48:15.791Z,100725.91
2023-04-25T15:50:43.539Z,100727.22
2023-04-25T15:53:11.838Z,100725.75
2023-04-25T15:55:39.553Z,100728.00
2023-04-25T15:58:08.170Z,100728.28
2023-04-25T16:00:37.860Z,100728.75
2023-04-25T16:03:06.127Z,100728.19
2023-04-25T16:05:35.387Z,100728.91
2023-04-25T16:08:04.702Z,100730.84
2023-04-25T16:10:32.502Z,100731.66
2023-04-25T16:13:01.073Z,100743.91
2023-04-25T16:15:28.833Z,100735.34
2023-04-25T16:17:56.645Z,100740.97
2023-04-25T16:20:24.856Z,100735.59
2023-04-25T16:22:53.973Z,100737.19
2023-04-25T16:25:22.311Z,100728.31
2023-04-25T16:27:50.360Z,100736.47
2023-04-25T16:30:18.157Z,100733.47
2023-04-25T16:32:46.256Z,100741.13
2023-04-25T16:35:14.380Z,100744.97
2023-04-25T16:37:42.133Z,100749.66
2023-04-25T16:40:12.628Z,100741.72
2023-04-25T16:42:40.386Z,100744.13
2023-04-25T16:45:09.221Z,100741.56
2023-04-25T16:47:37.265Z,100754.66
2023-04-25T16:50:05.878Z,100758.53
2023-04-25T16:52:33.680Z,100743.81
2023-04-25T16:55:01.489Z,100750.88
2023-04-25T16:57:30.643Z,100742.44
2023-04-25T16:59:58.385Z,100750.72
2023-04-25T17:02:26.382Z,100747.22
2023-04-25T17:04:54.269Z,100751.16
2023-04-25T17:07:24.477Z,100749.03
2023-04-25T17:09:52.329Z,100750.56
2023-04-25T17:12:20.595Z,100753.16
2023-04-25T17:14:50.083Z,100754.44
2023-04-25T17:17:19.009Z,100766.63
2023-04-25T17:19:47.037Z,100760.84
2023-04-25T17:22:15.256Z,100757.28
2023-04-25T17:24:43.079Z,100768.50
2023-04-25T17:27:11.768Z,100765.25
2023-04-25T17:29:39.473Z,100758.19
2023-04-25T17:32:08.550Z,100770.03
2023-04-25T17:34:37.864Z,100771.19
2023-04-25T17:37:05.889Z,100769.25
2023-04-25T17:39:33.838Z,100760.06
2023-04-25T17:42:02.466Z,100775.13
2023-04-25T17:44:30.268Z,100774.84
2023-04-25T17:46:57.964Z,100781.56
2023-04-25T17:49:27.114Z,100784.75
2023-04-25T17:51:55.186Z,100774.28
2023-04-25T17:54:23.248Z,100790.16
2023-04-25T17:56:51.348Z,100788.22
2023-04-25T17:59:19.356Z,100796.56
2023-04-25T18:01:48.183Z,100791.81
2023-04-25T18:04:17.535Z,100795.56
2023-04-25T18:06:46.724Z,100799.31
2023-04-25T18:09:17.368Z,100805.16
2023-04-25T18:11:45.585Z,100805.00
2023-04-25T18:14:15.104Z,100813.22
2023-04-25T18:16:43.789Z,100811.94
2023-04-25T18:19:15.470Z,100816.63
2023-04-25T18:21:45.292Z,100816.50
2023-04-25T18:24:14.573Z,100824.03
2023-04-25T18:26:42.275Z,100823.47
2023-04-25T18:29:16.279Z,100822.25
2023-04-25T18:31:50.078Z,100838.53
2023-04-25T18:34:20.399Z,100837.69
2023-04-25T18:36:48.196Z,100841.28
2023-04-25T18:39:22.616Z,100844.63
2023-04-25T18:41:56.500Z,100838.75
2023-04-25T18:44:29.244Z,100853.06
2023-04-25T18:46:56.968Z,100849.19
2023-04-25T18:49:24.771Z,100852.78
2023-04-25T18:51:56.037Z,100854.41
2023-04-25T18:54:25.226Z,100853.38
2023-04-25T18:56:55.612Z,100858.41
2023-04-25T18:59:23.336Z,100858.94
2023-04-25T19:01:53.435Z,100854.88
2023-04-25T19:04:21.371Z,100855.53
2023-04-25T19:06:49.949Z,100864.56
2023-04-25T19:09:18.343Z,100876.34
2023-04-25T19:11:47.509Z,100874.91
2023-04-25T19:14:15.503Z,100878.81
2023-04-25T19:16:43.295Z,100872.09
2023-04-25T19:19:11.437Z,100878.59
2023-04-25T19:21:45.321Z,100886.22
2023-04-25T19:24:13.214Z,100888.13
2023-04-25T19:26:41.005Z,100888.38
2023-04-25T19:29:12.186Z,100885.16
2023-04-25T19:31:41.710Z,100891.69
2023-04-25T19:34:12.027Z,100887.81
2023-04-25T19:36:41.547Z,100891.22
2023-04-25T19:39:09.446Z,100892.63
2023-04-25T19:41:39.437Z,100892.88
2023-04-25T19:44:09.603Z,100898.16
2023-04-25T19:46:39.670Z,100902.34
2023-04-25T19:49:08.317Z,100907.50
2023-04-25T19:51:45.526Z,100904.88
2023-04-25T19:54:13.453Z,100892.53
2023-04-25T19:56:45.839Z,100900.09
2023-04-25T19:59:15.257Z,100905.28
2023-04-25T20:01:48.886Z,100908.03
2023-04-25T20:04:18.218Z,100910.69
2023-04-25T20:06:46.310Z,100899.91
2023-04-25T20:09:16.554Z,100913.84
2023-04-25T20:11:47.208Z,100911.31
2023-04-25T20:14:15.040Z,100915.50
2023-04-25T20:16:44.252Z,100909.06
2023-04-25T20:19:12.041Z,100919.97
2023-04-25T20:21:41.436Z,100918.78
2023-04-25T20:24:09.551Z,100928.63
2023-04-25T20:26:37.313Z,100931.88
2023-04-25T20:29:06.192Z,100928.25
2023-04-25T20:31:36.802Z,100937.63
2023-04-25T20:34:06.136Z,100935.47
2023-04-25T20:36:33.903Z,100925.41
2023-04-25T20:39:01.660Z,100932.72
2023-04-25T20:41:30.835Z,100935.69
2023-04-25T20:43:59.204Z,100929.84
2023-04-25T20:46:32.123Z,100931.88
2023-04-25T20:49:01.500Z,100928.00
2023-04-25T20:51:30.967Z,100928.00
2023-04-25T20:53:58.866Z,100929.69
2023-04-25T20:56:27.003Z,100929.47
2023-04-25T20:58:55.674Z,100937.38
2023-04-25T21:01:24.120Z,100931.59
2023-04-25T21:03:52.832Z,100937.00
2023-04-25T21:06:21.143Z,100938.69
2023-04-25T21:08:50.422Z,100941.44
2023-04-25T21:11:19.503Z,100932.56
2023-04-25T21:13:49.297Z,100941.66
2023-04-25T21:16:17.242Z,100944.56
2023-04-25T21:18:45.288Z,100936.97
2023-04-25T21:21:12.967Z,100941.41
2023-04-25T21:23:40.677Z,100945.34
2023-04-25T21:26:09.808Z,100943.66
2023-04-25T21:28:37.674Z,100946.66
2023-04-25T21:31:05.701Z,100950.59
2023-04-25T21:33:33.410Z,100950.72
2023-04-25T21:36:02.869Z,100962.31
2023-04-25T21:38:30.610Z,100962.44
2023-04-25T21:41:04.352Z,100961.97
2023-04-25T21:43:33.786Z,100966.38
2023-04-25T21:48:32.436Z,100951.91
2023-04-25T21:51:00.281Z,100969.88
2023-04-25T21:53:27.975Z,100971.44
2023-04-25T21:55:55.729Z,100968.69
2023-04-25T21:58:23.565Z,100964.16
2023-04-25T22:00:52.727Z,100968.59
2023-04-25T22:03:20.655Z,100970.59
2023-04-25T22:05:48.944Z,100965.59
2023-04-25T22:08:17.381Z,100975.50
2023-04-25T22:10:45.158Z,100978.16
2023-04-25T22:13:13.185Z,100979.31
2023-04-25T22:15:41.501Z,100980.25
2023-04-25T22:18:11.156Z,100985.63
2023-04-25T22:20:39.111Z,100985.00
2023-04-25T22:23:06.833Z,100986.09
2023-04-25T22:25:34.546Z,100992.44
2023-04-25T22:28:02.280Z,100988.00
2023-04-25T22:30:31.267Z,100989.50
2023-04-25T22:32:59.216Z,100994.56
2023-04-25T22:35:28.603Z,100998.34
2023-04-25T22:37:56.347Z,101000.28
2023-04-25T22:40:24.185Z,101012.94
2023-04-25T22:42:51.938Z,101009.78
2023-04-25T22:45:19.757Z,101016.94
2023-04-25T22:47:47.604Z,101014.31
2023-04-25T22:50:16.820Z,101020.94
2023-04-25T22:52:47.956Z,101018.63
2023-04-25T22:55:15.832Z,101024.00
2023-04-25T22:57:43.773Z,101027.94
2023-04-25T23:00:17.090Z,101025.41
2023-04-25T23:02:46.530Z,101021.19
2023-04-25T23:05:15.685Z,101024.97
2023-04-25T23:07:44.568Z,101020.78
2023-04-25T23:10:14.222Z,101021.97
2023-04-25T23:12:42.328Z,101012.47
2023-04-25T23:15:12.362Z,101020.47
2023-04-25T23:17:40.914Z,101024.81
2023-04-25T23:20:11.275Z,101013.56
2023-04-25T23:22:39.388Z,101023.34
2023-04-25T23:25:08.678Z,101020.91
2023-04-25T23:27:38.114Z,101021.22
2023-04-25T23:30:08.625Z,101025.69
2023-04-25T23:32:37.090Z,101024.41
2023-04-25T23:35:05.945Z,101018.31
2023-04-25T23:37:34.429Z,101026.28
2023-04-25T23:40:04.173Z,101027.78
2023-04-25T23:42:31.926Z,101029.66
2023-04-25T23:45:01.359Z,101031.56
2023-04-25T23:47:29.299Z,101026.69
2023-04-25T23:49:57.154Z,101029.88
2023-04-25T23:52:24.975Z,101027.97
2023-04-25T23:54:52.912Z,101031.88
2023-04-25T23:57:20.771Z,101031.34
2023-04-25T23:59:48.553Z,101041.13
